Terminal Aerodrome Forecast
Issued by NWS Wilmington, OH

Current Version | Previous Version | Graphics & Text | Print | Product List | Glossary On
Versions: 1 2 3 4 5 6 7 8 9 10 11 12 13 14 15 16 17 18 19 20 21 22 23 24 25 26 27
656
FTUS41 KILN 240529
TAFCVG
TAF
KCVG 240529Z 2406/2512 14009KT P6SM FEW050 OVC150
     FM241200 14005KT P6SM SCT025 OVC050
     FM241400 14005KT P6SM VCSH OVC050
     FM241800 14005KT 4SM SHRA VCTS OVC025CB
     FM242300 26009KT P6SM VCSH BKN015
     FM250700 24008KT P6SM VCSH BKN008=

USA.gov is the U.S. government's official web portal to all federal, state and local government web resources and services.